createdAt,value
2018-05-02T00:01:24.575Z,100239.23
2018-05-02T00:03:50.075Z,100231.77
2018-05-02T00:06:16.129Z,100230.39
2018-05-02T00:08:41.753Z,100225.63
2018-05-02T00:11:07.391Z,100221.44
2018-05-02T00:13:33.640Z,100223.13
2018-05-02T00:15:59.156Z,100219.94
2018-05-02T00:18:24.736Z,100218.95
2018-05-02T00:20:51.110Z,100220.92
2018-05-02T00:23:16.727Z,100228.53
2018-05-02T00:25:43.401Z,100219.23
2018-05-02T00:28:09.533Z,100214.91
2018-05-02T00:30:35.162Z,100222.77
2018-05-02T00:33:00.731Z,100227.10
2018-05-02T00:35:26.731Z,100216.52
2018-05-02T00:37:52.239Z,100217.08
2018-05-02T00:40:18.149Z,100221.70
2018-05-02T00:42:44.212Z,100219.16
2018-05-02T00:45:09.768Z,100219.20
2018-05-02T00:47:35.280Z,100232.68
2018-05-02T00:50:01.445Z,100223.21
2018-05-02T00:52:26.965Z,100231.88
2018-05-02T00:54:53.066Z,100225.19
2018-05-02T00:57:18.604Z,100222.62
2018-05-02T00:59:44.506Z,100227.13
2018-05-02T01:02:10.084Z,100230.06
2018-05-02T01:04:35.616Z,100227.97
2018-05-02T01:07:01.676Z,100221.41
2018-05-02T01:09:27.204Z,100221.41
2018-05-02T01:11:52.780Z,100222.57
2018-05-02T01:14:18.703Z,100221.70
2018-05-02T01:16:44.251Z,100225.04
2018-05-02T01:19:09.850Z,100217.31
2018-05-02T05:40:28.764Z,100185.69
2018-05-02T05:42:54.409Z,100200.60
2018-05-02T05:45:19.988Z,100210.54
2018-05-02T05:47:46.197Z,100211.86
2018-05-02T05:50:13.149Z,100209.14
2018-05-02T05:52:38.731Z,100211.73
2018-05-02T05:55:04.915Z,100208.96
2018-05-02T05:57:30.578Z,100206.00
2018-05-02T05:59:56.146Z,100209.67
2018-05-02T06:02:22.429Z,100208.59
2018-05-02T06:04:48.078Z,100207.55
2018-05-02T06:07:13.662Z,100209.22
2018-05-02T06:09:39.343Z,100201.23
2018-05-02T06:12:04.903Z,100203.83
2018-05-02T06:14:30.538Z,100203.11
2018-05-02T06:16:56.628Z,100214.09
2018-05-02T06:19:22.301Z,100213.77
2018-05-02T06:21:48.163Z,100218.52
2018-05-02T06:24:13.740Z,100214.80
2018-05-02T06:26:39.395Z,100216.89
2018-05-02T06:29:05.169Z,100217.24
2018-05-02T06:31:30.796Z,100214.28
2018-05-02T06:33:56.431Z,100213.52
2018-05-02T06:36:22.156Z,100217.22
2018-05-02T06:38:47.745Z,100211.45
2018-05-02T06:41:13.574Z,100204.52
2018-05-02T06:43:39.341Z,100203.84
2018-05-02T06:46:04.942Z,100204.08
2018-05-02T06:48:30.523Z,100208.00
2018-05-02T06:50:56.714Z,100209.32
2018-05-02T06:53:22.288Z,100202.89
2018-05-02T06:55:47.837Z,100186.85
2018-05-02T06:58:13.665Z,100195.63
2018-05-02T07:00:39.441Z,100198.66
2018-05-02T07:03:05.054Z,100181.77
2018-05-02T07:05:30.903Z,100183.02
2018-05-02T07:07:56.476Z,100176.71
2018-05-02T07:10:22.149Z,100175.47
2018-05-02T07:12:47.936Z,100175.38
2018-05-02T07:15:13.493Z,100166.06
2018-05-02T07:17:39.153Z,100158.27
2018-05-02T07:20:04.960Z,100147.90
2018-05-02T07:22:30.853Z,100150.23
2018-05-02T07:24:56.435Z,100152.12
2018-05-02T07:27:22.304Z,100150.48
2018-05-02T07:29:47.928Z,100160.85
2018-05-02T07:32:13.487Z,100144.05
2018-05-02T07:34:39.537Z,100148.81
2018-05-02T07:37:05.464Z,100147.89
2018-05-02T07:39:31.083Z,100138.72
2018-05-02T07:41:56.929Z,100147.23
2018-05-02T07:44:22.482Z,100154.38
2018-05-02T07:46:48.093Z,100145.09
2018-05-02T07:49:13.911Z,100155.42
2018-05-02T07:51:39.475Z,100139.55
2018-05-02T07:54:05.029Z,100141.70
2018-05-02T07:56:30.869Z,100140.33
2018-05-02T07:58:56.683Z,100133.22
2018-05-02T08:01:22.239Z,100134.91
2018-05-02T08:03:48.016Z,100131.72
2018-05-02T08:06:13.866Z,100133.22
2018-05-02T08:08:39.469Z,100133.68
2018-05-02T08:11:05.403Z,100127.54
2018-05-02T08:13:30.969Z,100129.09
2018-05-02T08:15:56.532Z,100132.97
2018-05-02T08:18:22.328Z,100144.44
2018-05-02T08:20:47.964Z,100129.67
2018-05-02T08:23:13.716Z,100127.95
2018-05-02T08:25:39.531Z,100117.78
2018-05-02T08:28:06.566Z,100115.72
2018-05-02T08:30:32.161Z,100120.48
2018-05-02T08:32:58.000Z,100120.12
2018-05-02T08:35:23.496Z,100119.49
2018-05-02T08:37:49.109Z,100112.43
2018-05-02T08:40:14.827Z,100115.52
2018-05-02T08:42:40.406Z,100124.11
2018-05-02T08:45:05.963Z,100128.16
2018-05-02T08:47:31.813Z,100125.48
2018-05-02T08:49:57.474Z,100109.77
2018-05-02T08:52:23.307Z,100111.24
2018-05-02T08:54:49.136Z,100112.70
2018-05-02T08:57:14.745Z,100108.14
2018-05-02T08:59:40.323Z,100108.97
2018-05-02T09:02:06.069Z,100107.45
2018-05-02T09:04:31.707Z,100102.83
2018-05-02T09:06:57.265Z,100112.98
2018-05-02T09:09:23.097Z,100108.64
2018-05-02T09:11:48.926Z,100113.16
2018-05-02T09:14:14.507Z,100110.51
2018-05-02T09:16:40.358Z,100108.18
2018-05-02T09:19:05.930Z,100107.12
2018-05-02T09:21:31.553Z,100109.52
2018-05-02T09:23:57.301Z,100095.06
2018-05-02T09:26:24.258Z,100105.56
2018-05-02T09:28:49.821Z,100104.66
2018-05-02T09:31:15.612Z,100097.34
2018-05-02T09:33:41.413Z,100096.28
2018-05-02T09:36:06.981Z,100093.63
2018-05-02T09:38:32.889Z,100088.17
2018-05-02T09:40:58.434Z,100088.88
2018-05-02T09:43:24.167Z,100090.80
2018-05-02T09:45:49.780Z,100093.91
2018-05-02T09:48:15.346Z,100072.64
2018-05-02T09:50:41.196Z,100084.19
2018-05-02T09:53:06.761Z,100079.28
2018-05-02T09:55:32.324Z,100077.30
2018-05-02T09:57:58.120Z,100074.48
2018-05-02T10:04:04.949Z,100069.55
2018-05-02T10:06:30.521Z,100069.88
2018-05-02T10:08:56.087Z,100071.09
2018-05-02T10:11:21.882Z,100068.31
2018-05-02T10:13:47.534Z,100067.62
2018-05-02T10:16:13.115Z,100067.14
2018-05-02T10:18:38.881Z,100069.55
2018-05-02T10:21:04.504Z,100070.15
2018-05-02T10:23:30.302Z,100067.25
2018-05-02T10:25:56.035Z,100062.69
2018-05-02T10:28:21.645Z,100062.27
2018-05-02T10:30:47.203Z,100059.12
2018-05-02T10:33:12.968Z,100049.70
2018-05-02T10:35:38.577Z,100042.62
2018-05-02T10:38:04.132Z,100043.34
2018-05-02T10:40:29.964Z,100040.06
2018-05-02T10:42:55.727Z,100049.44
2018-05-02T10:45:21.305Z,100045.90
2018-05-02T10:47:47.057Z,100036.63
2018-05-02T10:52:56.574Z,100036.73
2018-05-02T10:55:22.194Z,100024.15
2018-05-02T10:57:47.808Z,100022.06
2018-05-02T11:00:13.726Z,100026.23
2018-05-02T11:02:39.349Z,100016.35
2018-05-02T11:05:05.040Z,100009.34
2018-05-02T11:07:30.906Z,100006.82
2018-05-02T11:09:56.655Z,100001.77
2018-05-02T11:12:22.494Z,100002.55
2018-05-02T11:14:48.358Z,99999.98
2018-05-02T11:17:14.057Z,100000.17
2018-05-02T11:19:39.674Z,99996.66
2018-05-02T11:22:05.635Z,100000.35
2018-05-02T11:24:31.226Z,99987.94
2018-05-02T11:26:57.063Z,99993.19
2018-05-02T11:29:22.996Z,99985.02
2018-05-02T11:31:48.604Z,99988.83
2018-05-02T11:34:14.249Z,99985.44
2018-05-02T11:36:40.208Z,99986.34
2018-05-02T11:39:05.827Z,99984.14
2018-05-02T11:41:31.642Z,99983.82
2018-05-02T11:43:57.261Z,99976.97
2018-05-02T11:46:23.172Z,99978.78
2018-05-02T11:48:48.786Z,99981.19
2018-05-02T11:51:14.496Z,99977.86
2018-05-02T11:53:40.292Z,99980.38
2018-05-02T11:56:05.999Z,99969.73
2018-05-02T11:58:31.624Z,99968.16
2018-05-02T12:00:57.474Z,99962.58
2018-05-02T12:03:23.106Z,99972.95
2018-05-02T12:05:48.927Z,99969.62
2018-05-02T12:08:14.703Z,99963.45
2018-05-02T12:10:40.354Z,99962.84
2018-05-02T12:13:06.045Z,99966.77
2018-05-02T12:15:31.848Z,99969.44
2018-05-02T12:17:57.762Z,99973.83
2018-05-02T12:20:23.404Z,99969.06
2018-05-02T12:22:49.158Z,99957.23
2018-05-02T12:25:14.777Z,99959.20
2018-05-02T12:27:40.762Z,99950.89
2018-05-02T12:30:06.529Z,99956.72
2018-05-02T12:32:32.124Z,99956.11
2018-05-02T12:34:57.744Z,99957.62
2018-05-02T12:37:23.712Z,99958.13
2018-05-02T12:39:49.330Z,99957.75
2018-05-02T12:42:14.949Z,99949.07
2018-05-02T12:44:40.807Z,99952.34
2018-05-02T12:47:06.501Z,99947.89
2018-05-02T12:49:32.450Z,99944.20
2018-05-02T12:51:58.316Z,99950.64
2018-05-02T12:54:23.941Z,99945.34
2018-05-02T12:56:49.570Z,99942.86
2018-05-02T12:59:15.359Z,99949.07
2018-05-02T13:01:41.192Z,99938.78
2018-05-02T13:04:07.217Z,99939.37
2018-05-02T13:06:33.340Z,99933.28
2018-05-02T13:08:58.940Z,99922.44
2018-05-02T13:11:24.566Z,99923.20
2018-05-02T13:13:50.452Z,99922.97
2018-05-02T13:16:16.387Z,99919.77
2018-05-02T13:18:42.030Z,99925.98
2018-05-02T13:21:07.854Z,99916.60
2018-05-02T13:23:33.467Z,99918.06
2018-05-02T13:25:59.165Z,99914.23
2018-05-02T13:28:25.027Z,99917.52
2018-05-02T13:30:50.659Z,99914.39
2018-05-02T13:33:16.358Z,99906.52
2018-05-02T13:35:42.172Z,99902.67
2018-05-02T13:38:07.854Z,99887.84
2018-05-02T13:40:33.469Z,99888.63
2018-05-02T13:42:59.328Z,99872.77
2018-05-02T13:45:25.218Z,99873.38
2018-05-02T13:47:50.835Z,99876.58
2018-05-02T13:50:16.559Z,99875.62
2018-05-02T13:52:42.317Z,99872.90
2018-05-02T13:55:08.351Z,99866.66
2018-05-02T13:57:33.961Z,99861.94
2018-05-02T13:59:59.594Z,99865.86
2018-05-02T14:02:25.417Z,99865.41
2018-05-02T14:04:51.111Z,99854.65
2018-05-02T14:07:16.670Z,99862.14
2018-05-02T14:09:42.468Z,99862.22
2018-05-02T14:12:08.040Z,99849.37
2018-05-02T14:14:33.650Z,99845.84
2018-05-02T14:16:59.504Z,99837.62
2018-05-02T14:19:25.071Z,99829.78
2018-05-02T14:21:50.654Z,99835.31
2018-05-02T14:24:16.415Z,99824.35
2018-05-02T14:26:41.990Z,99830.61
2018-05-02T14:29:07.565Z,99829.44
2018-05-02T14:31:33.919Z,99830.23
2018-05-02T14:33:59.747Z,99824.71
2018-05-02T14:36:25.395Z,99827.43
2018-05-02T14:38:51.326Z,99827.06
2018-05-02T14:41:16.893Z,99822.73
2018-05-02T14:43:42.705Z,99820.80
2018-05-02T14:46:08.489Z,99816.45
2018-05-02T14:48:34.084Z,99818.80
2018-05-02T14:50:59.713Z,99819.91
2018-05-02T14:53:25.521Z,99820.28
2018-05-02T14:55:51.096Z,99818.36
2018-05-02T14:58:16.668Z,99816.83
2018-05-02T15:00:42.526Z,99823.89
2018-05-02T15:03:08.287Z,99814.47
2018-05-02T15:05:33.869Z,99822.66
2018-05-02T15:07:59.737Z,99821.50
2018-05-02T15:10:25.302Z,99812.88
2018-05-02T15:12:50.888Z,99826.63
2018-05-02T15:15:16.620Z,99825.41
2018-05-02T15:17:42.242Z,99824.98
2018-05-02T15:20:07.858Z,99829.31
2018-05-02T15:22:33.597Z,99816.30
2018-05-02T15:24:59.333Z,99817.20
2018-05-02T15:27:24.906Z,99820.27
2018-05-02T15:29:50.750Z,99828.61
2018-05-02T15:32:16.375Z,99825.50
2018-05-02T15:34:41.994Z,99823.55
2018-05-02T15:37:07.817Z,99827.48
2018-05-02T15:39:33.411Z,99828.67
2018-05-02T15:41:59.073Z,99830.61
2018-05-02T15:44:24.919Z,99833.78
2018-05-02T15:46:50.494Z,99832.58
2018-05-02T15:49:16.231Z,99838.12
2018-05-02T15:51:41.950Z,99829.06
2018-05-02T15:54:07.512Z,99826.27
2018-05-02T15:56:33.075Z,99824.72
2018-05-02T15:58:58.803Z,99825.91
2018-05-02T16:01:24.356Z,99826.31
2018-05-02T16:03:50.223Z,99827.87
2018-05-02T16:06:16.055Z,99827.83
2018-05-02T16:08:41.601Z,99831.38
2018-05-02T16:11:07.983Z,99826.27
2018-05-02T16:13:33.793Z,99830.14
2018-05-02T16:15:59.365Z,99829.77
2018-05-02T16:18:24.937Z,99835.20
2018-05-02T16:20:51.693Z,99830.89
2018-05-02T16:23:17.263Z,99839.42
2018-05-02T16:25:42.925Z,99845.70
2018-05-02T16:28:08.909Z,99839.53
2018-05-02T16:30:34.469Z,99839.86
2018-05-02T16:33:00.188Z,99825.33
2018-05-02T16:35:25.725Z,99829.20
2018-05-02T16:37:51.680Z,99835.98
2018-05-02T16:40:17.305Z,99833.21
2018-05-02T16:42:43.042Z,99837.79
2018-05-02T16:45:08.696Z,99841.05
2018-05-02T16:47:34.222Z,99837.91
2018-05-02T16:49:59.940Z,99833.61
2018-05-02T16:52:25.521Z,99842.61
2018-05-02T16:54:51.090Z,99833.99
2018-05-02T16:57:17.067Z,99847.72
2018-05-02T16:59:42.639Z,99838.22
2018-05-02T17:02:08.424Z,99838.95
2018-05-02T17:04:34.255Z,99847.23
2018-05-02T17:06:59.855Z,99845.25
2018-05-02T17:09:25.460Z,99858.51
2018-05-02T17:11:51.328Z,99850.34
2018-05-02T17:14:16.985Z,99854.99
2018-05-02T17:16:42.662Z,99850.27
2018-05-02T17:19:08.511Z,99854.98
2018-05-02T17:21:34.081Z,99847.20
2018-05-02T17:23:59.654Z,99851.04
2018-05-02T17:26:25.372Z,99849.94
2018-05-02T17:28:50.987Z,99855.58
2018-05-02T17:31:16.819Z,99857.38
2018-05-02T17:33:42.674Z,99865.23
2018-05-02T17:36:08.294Z,99865.67
2018-05-02T17:38:34.177Z,99856.23
2018-05-02T17:40:59.993Z,99864.42
2018-05-02T17:43:25.520Z,99866.02
2018-05-02T17:45:52.595Z,99874.91
2018-05-02T17:48:18.179Z,99868.05
2018-05-02T17:50:44.340Z,99870.94
2018-05-02T17:53:09.934Z,99878.37
2018-05-02T17:55:35.683Z,99878.30
2018-05-02T17:58:01.771Z,99881.84
2018-05-02T18:00:27.396Z,99883.52
2018-05-02T18:02:52.957Z,99878.41
2018-05-02T18:05:18.731Z,99880.34
2018-05-02T18:07:44.324Z,99879.56
2018-05-02T18:10:09.902Z,99877.99
2018-05-02T18:12:35.769Z,99879.59
2018-05-02T18:15:01.431Z,99887.39
2018-05-02T18:17:27.041Z,99894.05
2018-05-02T18:19:52.749Z,99882.59
2018-05-02T18:22:18.350Z,99896.32
2018-05-02T18:24:43.978Z,99892.36
2018-05-02T18:27:09.785Z,99896.27
2018-05-02T18:29:35.405Z,99902.17
2018-05-02T18:32:00.983Z,99906.52
2018-05-02T18:34:27.118Z,99899.92
2018-05-02T18:36:52.669Z,99906.48
2018-05-02T18:39:18.336Z,99906.10
2018-05-02T18:41:44.343Z,99909.94
2018-05-02T18:44:09.973Z,99913.86
2018-05-02T18:46:35.564Z,99913.95
2018-05-02T18:49:02.069Z,99919.70
2018-05-02T18:51:28.357Z,99914.14
2018-05-02T18:53:53.935Z,99917.72
2018-05-02T18:56:20.436Z,99920.22
2018-05-02T18:58:46.071Z,99930.58
2018-05-02T19:02:44.608Z,99924.50
2018-05-02T19:05:10.245Z,99925.70
2018-05-02T19:07:35.850Z,99921.66
2018-05-02T19:10:01.974Z,99929.92
2018-05-02T19:12:27.591Z,99933.89
2018-05-02T19:14:53.227Z,99929.55
2018-05-02T19:17:19.601Z,99935.34
2018-05-02T19:20:04.109Z,99935.42
2018-05-02T19:22:30.472Z,99944.11
2018-05-02T19:25:15.693Z,99942.35
2018-05-02T19:27:41.648Z,99938.48
2018-05-02T19:30:07.227Z,99936.39
2018-05-02T19:32:52.288Z,99941.11
2018-05-02T19:35:17.898Z,99945.53
2018-05-02T19:37:43.512Z,99945.00
2018-05-02T19:40:28.106Z,99938.48
2018-05-02T19:43:12.662Z,99931.77
2018-05-02T19:45:39.825Z,99927.45
2018-05-02T19:48:05.407Z,99938.02
2018-05-02T19:50:31.052Z,99935.73
2018-05-02T19:52:57.125Z,99927.88
2018-05-02T19:55:22.707Z,99932.64
2018-05-02T19:57:48.606Z,99930.63
2018-05-02T20:00:33.719Z,99931.30
2018-05-02T20:03:02.318Z,99920.91
2018-05-02T20:05:27.954Z,99924.53
2018-05-02T20:07:53.967Z,99924.33
2018-05-02T20:10:38.118Z,99917.66
2018-05-02T20:13:23.135Z,99918.00
2018-05-02T20:15:48.707Z,99914.03
2018-05-02T20:18:14.290Z,99916.69
2018-05-02T20:20:40.277Z,99913.19
2018-05-02T20:23:06.390Z,99907.28
2018-05-02T20:25:32.015Z,99906.56
2018-05-02T20:27:58.321Z,99910.06
2018-05-02T20:30:24.612Z,99918.62
2018-05-02T20:35:22.305Z,99911.25
2018-05-02T20:37:48.403Z,99916.89
2018-05-02T20:40:13.968Z,99921.47
2018-05-02T20:42:39.605Z,99928.73
2018-05-02T20:45:05.321Z,99929.34
2018-05-02T20:47:30.938Z,99926.11
2018-05-02T20:49:56.470Z,99931.87
2018-05-02T20:52:22.178Z,99929.36
2018-05-02T20:54:47.840Z,99935.48
2018-05-02T20:57:13.377Z,99928.01
2018-05-02T20:59:39.488Z,99930.59
2018-05-02T21:02:05.056Z,99935.56
2018-05-02T21:04:30.633Z,99932.14
2018-05-02T21:06:56.342Z,99943.72
2018-05-02T21:09:21.982Z,99932.87
2018-05-02T21:11:47.557Z,99932.24
2018-05-02T21:14:13.257Z,99934.19
2018-05-02T21:16:38.893Z,99924.47
2018-05-02T21:19:04.484Z,99934.34
2018-05-02T21:21:30.246Z,99927.58
2018-05-02T21:23:57.100Z,99929.58
2018-05-02T21:26:22.760Z,99944.45
2018-05-02T21:28:48.430Z,99942.56
2018-05-02T21:31:14.206Z,99948.67
2018-05-02T21:33:39.960Z,99944.72
2018-05-02T21:36:05.524Z,99943.62
2018-05-02T21:38:31.305Z,99942.27
2018-05-02T21:40:56.871Z,99947.30
2018-05-02T21:43:22.438Z,99946.80
2018-05-02T21:45:48.202Z,99955.33
2018-05-02T21:48:13.824Z,99955.95
2018-05-02T21:50:39.463Z,99948.81
2018-05-02T21:53:05.303Z,99960.37
2018-05-02T21:55:30.872Z,99963.64
2018-05-02T21:57:56.619Z,99962.30
2018-05-02T22:00:22.328Z,99963.37
2018-05-02T22:02:47.903Z,99962.98
2018-05-02T22:05:13.631Z,99959.50
2018-05-02T22:07:39.335Z,99957.80
2018-05-02T22:10:04.957Z,99959.33
2018-05-02T22:12:30.729Z,99968.05
2018-05-02T22:14:56.515Z,99959.05
2018-05-02T22:17:22.057Z,99966.82
2018-05-02T22:19:47.636Z,99966.96
2018-05-02T22:22:13.465Z,99968.70
2018-05-02T22:24:39.062Z,99969.78
2018-05-02T22:27:04.649Z,99970.94
2018-05-02T22:29:30.369Z,99965.69
2018-05-02T22:31:55.941Z,99977.35
2018-05-02T22:34:21.781Z,99978.05
2018-05-02T22:36:47.355Z,99981.88
2018-05-02T22:39:13.171Z,99974.61
2018-05-02T22:41:38.928Z,99977.27
2018-05-02T22:44:04.497Z,99977.99
2018-05-02T22:46:30.167Z,99984.16
2018-05-02T22:48:55.969Z,99982.95
2018-05-02T22:51:21.641Z,99982.30
2018-05-02T22:53:47.215Z,99986.60
2018-05-02T22:56:12.982Z,99988.48
2018-05-02T22:58:38.591Z,99991.66
2018-05-02T23:01:04.398Z,99984.88
2018-05-02T23:03:30.159Z,99990.70
2018-05-02T23:05:56.258Z,99984.52
2018-05-02T23:08:21.835Z,99985.60
2018-05-02T23:10:47.632Z,99988.85
2018-05-02T23:13:13.237Z,99984.16
2018-05-02T23:15:38.804Z,99985.39
2018-05-02T23:18:04.613Z,99993.95
2018-05-02T23:20:30.332Z,99992.07
2018-05-02T23:22:55.953Z,99983.73
2018-05-02T23:25:21.736Z,99991.94
2018-05-02T23:27:47.298Z,99994.52
2018-05-02T23:30:13.022Z,99987.78
2018-05-02T23:32:38.795Z,99993.54
2018-05-02T23:35:04.359Z,99992.74
2018-05-02T23:37:29.942Z,99994.95
2018-05-02T23:39:55.689Z,99991.86
2018-05-02T23:42:21.316Z,99990.29
2018-05-02T23:44:46.984Z,100000.80
2018-05-02T23:47:12.779Z,99995.69
2018-05-02T23:49:38.625Z,99996.77
2018-05-02T23:52:04.274Z,99996.33
2018-05-02T23:54:30.250Z,100002.81
2018-05-02T23:56:55.809Z,99993.03
2018-05-02T23:59:21.520Z,99989.41
